CheckWX is a tool to help pilots better visualize weather data.  It is not intended as a substitute for an official pre-flight weather briefing.

12:52:50 UTC

EGSS METAR
London Stansted Airport
London, United Kingdom
Current

33 mins ago

EGSS 171220Z AUTO 21013KT 180V240 9999 SCT041 21/10 Q1017
Observed
Jun-17 @ 12:20 UTC
Wind
  • 210° at 13 KTS
Visibility
10,000+ meters
Flight Rules
VFR
Cloud Levels
  • Scattered at 4,100' AGL
Temperature
21°C / 70°F
Dewpoint
10°C / 50°F
Humidity
50%
Altimeter
30.03" Hg
Pressure
1016.92 hPa
Previous

1 hour ago

EGSS 171150Z AUTO 21011KT 9999 FEW041 21/10 Q1017
Observed
Jun-17 @ 11:50 UTC
Wind
  • 210° at 11 KTS
Visibility
10,000+ meters
Flight Rules
VFR
Cloud Levels
  • Few at 4,100' AGL
Temperature
21°C / 70°F
Dewpoint
10°C / 50°F
Humidity
50%
Altimeter
30.03" Hg
Pressure
1016.92 hPa
Previous

2 hours ago

EGSS 171120Z AUTO 21013KT 9999 FEW038 20/10 Q1017
Observed
Jun-17 @ 11:20 UTC
Wind
  • 210° at 13 KTS
Visibility
10,000+ meters
Flight Rules
VFR
Cloud Levels
  • Few at 3,800' AGL
Temperature
20°C / 68°F
Dewpoint
10°C / 50°F
Humidity
53%
Altimeter
30.03" Hg
Pressure
1016.92 hPa